CVLO2: Caney R. Collinsville,Ok

                                SHEF ID:       CVLO2     Caney River near Collinsville, O
STATION TYPE:
Regulating: Stage = 26.00, Flow = 13763

PRECIP STAGE RIV-FLOW BAT-LOAD
in ft cfs volt
Ccp-Rev Ccp-Rev Ccp-Rev Ccp-Rev
(America/Chicago)
04/27 00:00 0.00 10.64 2249 12.42
04/27 01:00 0.00 10.64 2249 12.40
04/27 02:00 0.00 10.63 2242 12.40
04/27 03:00 0.00 10.60 2222 12.37
04/27 04:00 0.00 10.58 2209 12.37
04/27 05:00 0.00 10.54 2182 12.35
04/27 06:00 0.00 10.49 2146 12.34
04/27 07:00 0.00 10.44 2110 12.33
04/27 08:00 0.00 10.39 2075 12.33
04/27 09:00 0.00 10.34 2039 12.42
04/27 10:00 0.00 10.28 1997 12.56
04/27 11:00 0.00 10.23 1962 12.63
04/27 12:00 0.00 10.18 1928 12.61
04/27 13:00 0.00 10.13 1893 12.67
04/27 14:00 0.00 10.08 1859 12.67
04/27 15:00 0.00 10.04 1832 12.67
04/27 16:00 0.00 9.99 1798 12.65
04/27 17:00 0.00 9.95 1770 12.64
04/27 18:00 0.00 9.93 1757 12.63
04/27 19:00 0.00 9.90 1737 12.64
04/27 20:00 0.00 9.88 1723 12.44
04/27 21:00 0.00 9.86 1710 12.40
04/27 22:00 0.00 9.86 1710 12.40
04/27 23:00 ---- ---- ---- 12.41
Data processed at Tue 28Apr2026 04:44 GMT

NOTICE: If you are parsing this page

Please convert to using our Data API. Starting early 2026 we will be migrating to: https://water.usace.army.mil with modern pages rendered in JavaScript. When this migration completes you will no longer be able to scrape this page! CWMSDataAPI (CDA)

Timeseries IDs (TSIDs)

TSIDs used from left to right in the data table
COLL.Precip-Inc.Total.1Hour.1Hour.Ccp-Rev
COLL.Stage.Inst.1Hour.0.Ccp-Rev
COLL.Flow.Inst.1Hour.0.Ccp-Rev
COLL.Volt-Battery Load.Inst.1Hour.0.Ccp-Rev

                            

All information presented herein is the property of the government of the United States of America and may be revised or deleted at any time without prior notice. Dissemination of this information without the expressed written consent of the Public Affairs Office, Tulsa District U.S. Army Corps of Engineers is strictly prohibited. These data are gathered electronically and, as presented, have NOT undergone any form of quality control. These data are NOT guaranteed to be valid or correct.